sensor_id;sensor_type;location;lat;lon;timestamp;P1;durP1;ratioP1;P2;durP2;ratioP2
4744;SDS011;2386;42.138;24.746;2023-04-25T00:01:10;6.60;;;4.90;;
4744;SDS011;2386;42.138;24.746;2023-04-25T00:03:38;5.57;;;3.90;;
4744;SDS011;2386;42.138;24.746;2023-04-25T00:06:03;8.53;;;3.83;;
4744;SDS011;2386;42.138;24.746;2023-04-25T00:08:29;5.80;;;3.87;;
4744;SDS011;2386;42.138;24.746;2023-04-25T00:10:56;9.57;;;3.30;;
4744;SDS011;2386;42.138;24.746;2023-04-25T00:13:22;4.50;;;3.70;;
4744;SDS011;2386;42.138;24.746;2023-04-25T00:15:47;4.17;;;3.37;;
4744;SDS011;2386;42.138;24.746;2023-04-25T00:18:13;4.60;;;3.20;;
4744;SDS011;2386;42.138;24.746;2023-04-25T00:20:39;4.03;;;3.60;;
4744;SDS011;2386;42.138;24.746;2023-04-25T00:23:05;4.50;;;3.77;;
4744;SDS011;2386;42.138;24.746;2023-04-25T00:25:30;5.60;;;4.33;;
4744;SDS011;2386;42.138;24.746;2023-04-25T00:27:56;6.37;;;4.13;;
4744;SDS011;2386;42.138;24.746;2023-04-25T00:30:21;4.70;;;4.10;;
4744;SDS011;2386;42.138;24.746;2023-04-25T00:32:47;5.33;;;3.57;;
4744;SDS011;2386;42.138;24.746;2023-04-25T00:35:13;7.33;;;3.80;;
4744;SDS011;2386;42.138;24.746;2023-04-25T00:37:39;5.60;;;4.00;;
4744;SDS011;2386;42.138;24.746;2023-04-25T00:40:05;9.03;;;4.17;;
4744;SDS011;2386;42.138;24.746;2023-04-25T00:42:31;7.63;;;4.17;;
4744;SDS011;2386;42.138;24.746;2023-04-25T00:44:58;4.90;;;4.10;;
4744;SDS011;2386;42.138;24.746;2023-04-25T00:47:24;6.47;;;4.07;;
4744;SDS011;2386;42.138;24.746;2023-04-25T00:49:50;4.90;;;4.30;;
4744;SDS011;2386;42.138;24.746;2023-04-25T00:55:37;5.50;;;4.10;;
4744;SDS011;2386;42.138;24.746;2023-04-25T00:58:03;4.90;;;3.47;;
4744;SDS011;2386;42.138;24.746;2023-04-25T01:00:28;7.17;;;4.13;;
4744;SDS011;2386;42.138;24.746;2023-04-25T01:02:54;3.73;;;3.43;;
4744;SDS011;2386;42.138;24.746;2023-04-25T01:05:19;5.07;;;3.83;;
4744;SDS011;2386;42.138;24.746;2023-04-25T01:07:45;6.03;;;4.30;;
4744;SDS011;2386;42.138;24.746;2023-04-25T01:10:10;4.93;;;3.90;;
4744;SDS011;2386;42.138;24.746;2023-04-25T01:12:36;6.40;;;4.43;;
4744;SDS011;2386;42.138;24.746;2023-04-25T01:15:01;4.70;;;3.83;;
4744;SDS011;2386;42.138;24.746;2023-04-25T01:17:27;5.67;;;4.50;;
4744;SDS011;2386;42.138;24.746;2023-04-25T01:19:54;4.40;;;3.90;;
4744;SDS011;2386;42.138;24.746;2023-04-25T01:22:19;5.93;;;4.20;;
4744;SDS011;2386;42.138;24.746;2023-04-25T01:24:45;5.50;;;4.93;;
4744;SDS011;2386;42.138;24.746;2023-04-25T01:30:32;5.83;;;4.37;;
4744;SDS011;2386;42.138;24.746;2023-04-25T01:32:59;4.93;;;3.80;;
4744;SDS011;2386;42.138;24.746;2023-04-25T01:35:26;4.83;;;4.30;;
4744;SDS011;2386;42.138;24.746;2023-04-25T01:37:51;4.80;;;3.90;;
4744;SDS011;2386;42.138;24.746;2023-04-25T01:40:17;4.80;;;4.30;;
4744;SDS011;2386;42.138;24.746;2023-04-25T01:42:43;6.97;;;3.73;;
4744;SDS011;2386;42.138;24.746;2023-04-25T01:45:10;7.30;;;4.00;;
4744;SDS011;2386;42.138;24.746;2023-04-25T01:47:37;7.50;;;4.10;;
4744;SDS011;2386;42.138;24.746;2023-04-25T01:50:05;4.70;;;4.10;;
4744;SDS011;2386;42.138;24.746;2023-04-25T01:52:32;8.30;;;5.00;;
4744;SDS011;2386;42.138;24.746;2023-04-25T01:54:57;4.87;;;4.37;;
4744;SDS011;2386;42.138;24.746;2023-04-25T01:57:26;8.30;;;5.20;;
4744;SDS011;2386;42.138;24.746;2023-04-25T01:59:51;8.03;;;5.97;;
4744;SDS011;2386;42.138;24.746;2023-04-25T02:02:20;10.57;;;5.80;;
4744;SDS011;2386;42.138;24.746;2023-04-25T02:04:46;9.20;;;6.83;;
4744;SDS011;2386;42.138;24.746;2023-04-25T02:07:11;9.00;;;6.50;;
4744;SDS011;2386;42.138;24.746;2023-04-25T02:09:37;8.13;;;6.17;;
4744;SDS011;2386;42.138;24.746;2023-04-25T02:12:02;6.83;;;5.90;;
4744;SDS011;2386;42.138;24.746;2023-04-25T02:14:28;9.37;;;6.33;;
4744;SDS011;2386;42.138;24.746;2023-04-25T02:16:53;8.80;;;6.20;;
4744;SDS011;2386;42.138;24.746;2023-04-25T02:19:19;7.03;;;5.40;;
4744;SDS011;2386;42.138;24.746;2023-04-25T02:21:44;8.60;;;5.43;;
4744;SDS011;2386;42.138;24.746;2023-04-25T02:24:10;7.30;;;5.80;;
4744;SDS011;2386;42.138;24.746;2023-04-25T02:26:36;8.60;;;5.63;;
4744;SDS011;2386;42.138;24.746;2023-04-25T02:29:01;6.57;;;5.40;;
4744;SDS011;2386;42.138;24.746;2023-04-25T02:31:27;7.63;;;5.60;;
4744;SDS011;2386;42.138;24.746;2023-04-25T02:33:52;7.30;;;5.87;;
4744;SDS011;2386;42.138;24.746;2023-04-25T02:36:17;8.70;;;5.70;;
4744;SDS011;2386;42.138;24.746;2023-04-25T02:38:43;7.13;;;5.40;;
4744;SDS011;2386;42.138;24.746;2023-04-25T02:44:30;8.67;;;5.50;;
4744;SDS011;2386;42.138;24.746;2023-04-25T02:46:55;7.60;;;6.13;;
4744;SDS011;2386;42.138;24.746;2023-04-25T02:49:21;6.80;;;5.47;;
4744;SDS011;2386;42.138;24.746;2023-04-25T02:51:46;11.90;;;6.30;;
4744;SDS011;2386;42.138;24.746;2023-04-25T02:54:11;7.67;;;5.70;;
4744;SDS011;2386;42.138;24.746;2023-04-25T02:56:37;13.00;;;6.20;;
4744;SDS011;2386;42.138;24.746;2023-04-25T02:59:02;19.37;;;6.50;;
4744;SDS011;2386;42.138;24.746;2023-04-25T03:01:28;10.20;;;6.73;;
4744;SDS011;2386;42.138;24.746;2023-04-25T03:03:53;9.23;;;6.37;;
4744;SDS011;2386;42.138;24.746;2023-04-25T03:09:40;10.00;;;7.00;;
4744;SDS011;2386;42.138;24.746;2023-04-25T03:12:05;10.50;;;6.80;;
4744;SDS011;2386;42.138;24.746;2023-04-25T03:14:31;9.17;;;6.83;;
4744;SDS011;2386;42.138;24.746;2023-04-25T03:16:56;8.70;;;6.20;;
4744;SDS011;2386;42.138;24.746;2023-04-25T03:19:22;9.40;;;6.53;;
4744;SDS011;2386;42.138;24.746;2023-04-25T03:21:47;8.70;;;5.80;;
4744;SDS011;2386;42.138;24.746;2023-04-25T03:24:13;7.70;;;6.10;;
4744;SDS011;2386;42.138;24.746;2023-04-25T03:26:38;15.83;;;7.20;;
4744;SDS011;2386;42.138;24.746;2023-04-25T03:29:04;10.20;;;6.50;;
4744;SDS011;2386;42.138;24.746;2023-04-25T03:31:29;15.10;;;6.00;;
4744;SDS011;2386;42.138;24.746;2023-04-25T03:33:55;7.87;;;6.00;;
4744;SDS011;2386;42.138;24.746;2023-04-25T03:36:20;11.63;;;6.37;;
4744;SDS011;2386;42.138;24.746;2023-04-25T03:38:46;12.07;;;6.67;;
4744;SDS011;2386;42.138;24.746;2023-04-25T03:41:13;9.30;;;6.80;;
4744;SDS011;2386;42.138;24.746;2023-04-25T03:43:38;10.60;;;6.50;;
4744;SDS011;2386;42.138;24.746;2023-04-25T03:46:04;10.80;;;7.00;;
4744;SDS011;2386;42.138;24.746;2023-04-25T03:48:29;9.77;;;6.70;;
4744;SDS011;2386;42.138;24.746;2023-04-25T03:50:55;7.87;;;6.53;;
4744;SDS011;2386;42.138;24.746;2023-04-25T03:53:20;10.07;;;6.43;;
4744;SDS011;2386;42.138;24.746;2023-04-25T03:55:45;8.17;;;6.50;;
4744;SDS011;2386;42.138;24.746;2023-04-25T03:58:11;11.17;;;7.57;;
4744;SDS011;2386;42.138;24.746;2023-04-25T04:00:36;13.23;;;7.57;;
4744;SDS011;2386;42.138;24.746;2023-04-25T04:03:02;14.40;;;7.90;;
4744;SDS011;2386;42.138;24.746;2023-04-25T04:05:27;15.10;;;8.70;;
4744;SDS011;2386;42.138;24.746;2023-04-25T04:07:53;17.07;;;10.40;;
4744;SDS011;2386;42.138;24.746;2023-04-25T04:10:19;11.80;;;7.97;;
4744;SDS011;2386;42.138;24.746;2023-04-25T04:12:45;12.13;;;7.77;;
4744;SDS011;2386;42.138;24.746;2023-04-25T04:15:10;13.80;;;9.97;;
4744;SDS011;2386;42.138;24.746;2023-04-25T04:17:35;14.10;;;9.17;;
4744;SDS011;2386;42.138;24.746;2023-04-25T04:20:01;13.23;;;9.17;;
4744;SDS011;2386;42.138;24.746;2023-04-25T04:22:28;13.47;;;9.17;;
4744;SDS011;2386;42.138;24.746;2023-04-25T04:24:54;13.97;;;8.50;;
4744;SDS011;2386;42.138;24.746;2023-04-25T04:27:19;11.90;;;8.70;;
4744;SDS011;2386;42.138;24.746;2023-04-25T04:29:46;17.00;;;9.47;;
4744;SDS011;2386;42.138;24.746;2023-04-25T04:32:12;16.50;;;9.03;;
4744;SDS011;2386;42.138;24.746;2023-04-25T04:34:38;16.63;;;10.33;;
4744;SDS011;2386;42.138;24.746;2023-04-25T04:37:04;13.97;;;9.13;;
4744;SDS011;2386;42.138;24.746;2023-04-25T04:39:32;11.23;;;8.93;;
4744;SDS011;2386;42.138;24.746;2023-04-25T04:41:58;14.07;;;9.80;;
4744;SDS011;2386;42.138;24.746;2023-04-25T04:44:24;19.33;;;12.57;;
4744;SDS011;2386;42.138;24.746;2023-04-25T04:46:50;17.53;;;10.70;;
4744;SDS011;2386;42.138;24.746;2023-04-25T04:49:16;14.90;;;10.17;;
4744;SDS011;2386;42.138;24.746;2023-04-25T04:51:42;17.10;;;11.80;;
4744;SDS011;2386;42.138;24.746;2023-04-25T04:54:11;20.50;;;13.47;;
4744;SDS011;2386;42.138;24.746;2023-04-25T04:56:37;18.03;;;10.43;;
4744;SDS011;2386;42.138;24.746;2023-04-25T04:59:03;16.70;;;10.07;;
4744;SDS011;2386;42.138;24.746;2023-04-25T05:01:28;20.70;;;9.93;;
4744;SDS011;2386;42.138;24.746;2023-04-25T05:03:55;11.27;;;9.23;;
4744;SDS011;2386;42.138;24.746;2023-04-25T05:06:25;19.77;;;9.70;;
4744;SDS011;2386;42.138;24.746;2023-04-25T05:08:50;13.27;;;10.17;;
4744;SDS011;2386;42.138;24.746;2023-04-25T05:11:17;17.33;;;11.70;;
4744;SDS011;2386;42.138;24.746;2023-04-25T05:13:42;15.37;;;12.17;;
4744;SDS011;2386;42.138;24.746;2023-04-25T05:16:08;13.63;;;10.67;;
4744;SDS011;2386;42.138;24.746;2023-04-25T05:18:33;16.17;;;10.80;;
4744;SDS011;2386;42.138;24.746;2023-04-25T05:20:58;14.43;;;10.17;;
4744;SDS011;2386;42.138;24.746;2023-04-25T05:23:24;13.30;;;10.60;;
4744;SDS011;2386;42.138;24.746;2023-04-25T05:25:50;16.30;;;10.67;;
4744;SDS011;2386;42.138;24.746;2023-04-25T05:28:15;18.30;;;11.33;;
4744;SDS011;2386;42.138;24.746;2023-04-25T05:30:40;22.03;;;12.27;;
4744;SDS011;2386;42.138;24.746;2023-04-25T05:33:06;17.83;;;12.50;;
4744;SDS011;2386;42.138;24.746;2023-04-25T05:35:32;19.30;;;14.40;;
4744;SDS011;2386;42.138;24.746;2023-04-25T05:37:57;15.03;;;11.13;;
4744;SDS011;2386;42.138;24.746;2023-04-25T05:40:23;20.50;;;11.20;;
4744;SDS011;2386;42.138;24.746;2023-04-25T05:42:48;16.63;;;11.47;;
4744;SDS011;2386;42.138;24.746;2023-04-25T05:45:13;17.77;;;10.97;;
4744;SDS011;2386;42.138;24.746;2023-04-25T05:47:39;18.97;;;10.87;;
4744;SDS011;2386;42.138;24.746;2023-04-25T05:50:04;15.37;;;10.03;;
4744;SDS011;2386;42.138;24.746;2023-04-25T05:52:30;13.13;;;9.83;;
4744;SDS011;2386;42.138;24.746;2023-04-25T05:54:56;16.03;;;10.83;;
4744;SDS011;2386;42.138;24.746;2023-04-25T05:59:50;15.57;;;10.50;;
4744;SDS011;2386;42.138;24.746;2023-04-25T06:02:17;20.20;;;10.87;;
4744;SDS011;2386;42.138;24.746;2023-04-25T06:04:43;16.43;;;11.27;;
4744;SDS011;2386;42.138;24.746;2023-04-25T06:07:08;22.00;;;11.73;;
4744;SDS011;2386;42.138;24.746;2023-04-25T06:09:34;15.30;;;11.77;;
4744;SDS011;2386;42.138;24.746;2023-04-25T06:11:59;14.50;;;10.67;;
4744;SDS011;2386;42.138;24.746;2023-04-25T06:14:25;14.10;;;11.07;;
4744;SDS011;2386;42.138;24.746;2023-04-25T06:16:51;12.47;;;9.30;;
4744;SDS011;2386;42.138;24.746;2023-04-25T06:19:16;13.33;;;8.83;;
4744;SDS011;2386;42.138;24.746;2023-04-25T06:21:43;10.40;;;8.70;;
4744;SDS011;2386;42.138;24.746;2023-04-25T06:24:09;14.93;;;9.80;;
4744;SDS011;2386;42.138;24.746;2023-04-25T06:26:34;19.80;;;9.70;;
4744;SDS011;2386;42.138;24.746;2023-04-25T06:29:00;15.60;;;9.27;;
4744;SDS011;2386;42.138;24.746;2023-04-25T06:31:25;11.93;;;8.80;;
4744;SDS011;2386;42.138;24.746;2023-04-25T06:33:50;8.80;;;7.90;;
4744;SDS011;2386;42.138;24.746;2023-04-25T06:36:19;10.23;;;8.23;;
4744;SDS011;2386;42.138;24.746;2023-04-25T06:38:49;15.50;;;8.80;;
4744;SDS011;2386;42.138;24.746;2023-04-25T06:41:15;12.30;;;9.40;;
4744;SDS011;2386;42.138;24.746;2023-04-25T06:43:41;12.90;;;10.20;;
4744;SDS011;2386;42.138;24.746;2023-04-25T06:46:06;18.03;;;10.50;;
4744;SDS011;2386;42.138;24.746;2023-04-25T06:48:31;21.27;;;11.43;;
4744;SDS011;2386;42.138;24.746;2023-04-25T06:50:57;20.20;;;12.10;;
4744;SDS011;2386;42.138;24.746;2023-04-25T06:53:22;16.77;;;12.37;;
4744;SDS011;2386;42.138;24.746;2023-04-25T06:55:47;18.43;;;12.60;;
4744;SDS011;2386;42.138;24.746;2023-04-25T06:58:13;18.97;;;13.60;;
4744;SDS011;2386;42.138;24.746;2023-04-25T07:00:38;20.30;;;12.40;;
4744;SDS011;2386;42.138;24.746;2023-04-25T07:03:04;20.57;;;14.17;;
4744;SDS011;2386;42.138;24.746;2023-04-25T07:05:29;23.63;;;12.97;;
4744;SDS011;2386;42.138;24.746;2023-04-25T07:07:54;17.47;;;12.17;;
4744;SDS011;2386;42.138;24.746;2023-04-25T07:10:20;20.10;;;11.50;;
4744;SDS011;2386;42.138;24.746;2023-04-25T07:12:46;30.73;;;12.67;;
4744;SDS011;2386;42.138;24.746;2023-04-25T07:15:11;17.00;;;11.20;;
4744;SDS011;2386;42.138;24.746;2023-04-25T07:17:37;21.00;;;12.70;;
4744;SDS011;2386;42.138;24.746;2023-04-25T07:20:03;23.10;;;12.83;;
4744;SDS011;2386;42.138;24.746;2023-04-25T07:22:30;17.93;;;12.53;;
4744;SDS011;2386;42.138;24.746;2023-04-25T07:24:56;19.77;;;12.83;;
4744;SDS011;2386;42.138;24.746;2023-04-25T07:27:22;17.50;;;11.63;;
4744;SDS011;2386;42.138;24.746;2023-04-25T07:29:47;21.20;;;12.40;;
4744;SDS011;2386;42.138;24.746;2023-04-25T07:32:13;19.60;;;10.73;;
4744;SDS011;2386;42.138;24.746;2023-04-25T07:34:39;15.90;;;10.10;;
4744;SDS011;2386;42.138;24.746;2023-04-25T07:37:04;26.43;;;11.57;;
4744;SDS011;2386;42.138;24.746;2023-04-25T07:39:30;12.43;;;9.90;;
4744;SDS011;2386;42.138;24.746;2023-04-25T07:41:56;17.77;;;11.00;;
4744;SDS011;2386;42.138;24.746;2023-04-25T07:44:23;19.83;;;10.03;;
4744;SDS011;2386;42.138;24.746;2023-04-25T07:46:49;36.57;;;10.33;;
4744;SDS011;2386;42.138;24.746;2023-04-25T07:49:14;15.70;;;10.87;;
4744;SDS011;2386;42.138;24.746;2023-04-25T07:51:40;32.87;;;12.70;;
4744;SDS011;2386;42.138;24.746;2023-04-25T07:54:06;12.80;;;9.80;;
4744;SDS011;2386;42.138;24.746;2023-04-25T07:56:32;12.30;;;9.70;;
4744;SDS011;2386;42.138;24.746;2023-04-25T07:58:57;12.80;;;9.50;;
4744;SDS011;2386;42.138;24.746;2023-04-25T08:01:23;25.47;;;9.90;;
4744;SDS011;2386;42.138;24.746;2023-04-25T08:03:48;13.10;;;8.80;;
4744;SDS011;2386;42.138;24.746;2023-04-25T08:06:14;20.20;;;9.40;;
4744;SDS011;2386;42.138;24.746;2023-04-25T08:08:40;15.33;;;8.83;;
4744;SDS011;2386;42.138;24.746;2023-04-25T08:11:05;12.40;;;9.13;;
4744;SDS011;2386;42.138;24.746;2023-04-25T08:13:30;11.67;;;8.87;;
4744;SDS011;2386;42.138;24.746;2023-04-25T08:15:56;11.00;;;8.80;;
4744;SDS011;2386;42.138;24.746;2023-04-25T08:18:21;20.10;;;7.87;;
4744;SDS011;2386;42.138;24.746;2023-04-25T08:20:47;12.67;;;7.97;;
4744;SDS011;2386;42.138;24.746;2023-04-25T08:23:12;15.73;;;7.30;;
4744;SDS011;2386;42.138;24.746;2023-04-25T08:25:48;7.97;;;6.03;;
4744;SDS011;2386;42.138;24.746;2023-04-25T08:28:14;16.60;;;7.60;;
4744;SDS011;2386;42.138;24.746;2023-04-25T08:30:40;11.07;;;6.50;;
4744;SDS011;2386;42.138;24.746;2023-04-25T08:33:05;15.23;;;6.40;;
4744;SDS011;2386;42.138;24.746;2023-04-25T08:35:31;8.00;;;5.77;;
4744;SDS011;2386;42.138;24.746;2023-04-25T08:37:58;5.10;;;4.20;;
4744;SDS011;2386;42.138;24.746;2023-04-25T08:40:23;8.77;;;4.17;;
4744;SDS011;2386;42.138;24.746;2023-04-25T08:42:53;7.93;;;3.77;;
4744;SDS011;2386;42.138;24.746;2023-04-25T08:45:20;9.63;;;3.73;;
4744;SDS011;2386;42.138;24.746;2023-04-25T08:47:46;3.90;;;3.13;;
4744;SDS011;2386;42.138;24.746;2023-04-25T08:50:13;7.50;;;3.70;;
4744;SDS011;2386;42.138;24.746;2023-04-25T08:52:43;5.97;;;3.63;;
4744;SDS011;2386;42.138;24.746;2023-04-25T08:55:13;6.20;;;3.73;;
4744;SDS011;2386;42.138;24.746;2023-04-25T08:57:40;4.70;;;4.20;;
4744;SDS011;2386;42.138;24.746;2023-04-25T09:00:10;7.23;;;4.47;;
4744;SDS011;2386;42.138;24.746;2023-04-25T09:02:38;7.83;;;4.13;;
4744;SDS011;2386;42.138;24.746;2023-04-25T09:05:04;6.23;;;4.60;;
4744;SDS011;2386;42.138;24.746;2023-04-25T09:07:31;8.43;;;4.57;;
4744;SDS011;2386;42.138;24.746;2023-04-25T09:09:59;14.13;;;4.30;;
4744;SDS011;2386;42.138;24.746;2023-04-25T09:12:44;9.80;;;6.23;;
4744;SDS011;2386;42.138;24.746;2023-04-25T09:15:21;78.37;;;36.83;;
4744;SDS011;2386;42.138;24.746;2023-04-25T09:30:42;11.57;;;4.73;;
4744;SDS011;2386;42.138;24.746;2023-04-25T09:33:20;6.20;;;4.97;;
4744;SDS011;2386;42.138;24.746;2023-04-25T09:36:01;4.40;;;4.00;;
4744;SDS011;2386;42.138;24.746;2023-04-25T09:38:28;5.30;;;4.80;;
4744;SDS011;2386;42.138;24.746;2023-04-25T09:40:56;5.63;;;5.03;;
4744;SDS011;2386;42.138;24.746;2023-04-25T09:45:53;5.70;;;5.20;;
4744;SDS011;2386;42.138;24.746;2023-04-25T09:48:24;21.93;;;7.20;;
4744;SDS011;2386;42.138;24.746;2023-04-25T09:53:41;5.27;;;4.77;;
4744;SDS011;2386;42.138;24.746;2023-04-25T09:56:19;9.23;;;5.60;;
4744;SDS011;2386;42.138;24.746;2023-04-25T09:58:47;7.43;;;5.70;;
4744;SDS011;2386;42.138;24.746;2023-04-25T10:01:15;7.40;;;4.97;;
4744;SDS011;2386;42.138;24.746;2023-04-25T10:03:41;7.50;;;5.63;;
4744;SDS011;2386;42.138;24.746;2023-04-25T10:06:12;10.20;;;5.57;;
4744;SDS011;2386;42.138;24.746;2023-04-25T10:08:39;7.33;;;5.50;;
4744;SDS011;2386;42.138;24.746;2023-04-25T10:11:07;16.87;;;5.77;;
4744;SDS011;2386;42.138;24.746;2023-04-25T10:24:14;6.30;;;4.60;;
4744;SDS011;2386;42.138;24.746;2023-04-25T10:26:40;4.63;;;4.00;;
4744;SDS011;2386;42.138;24.746;2023-04-25T10:29:07;10.83;;;4.30;;
4744;SDS011;2386;42.138;24.746;2023-04-25T10:32:32;3.93;;;3.40;;
4744;SDS011;2386;42.138;24.746;2023-04-25T10:35:02;5.87;;;4.00;;
4744;SDS011;2386;42.138;24.746;2023-04-25T10:37:36;5.90;;;4.03;;
4744;SDS011;2386;42.138;24.746;2023-04-25T10:40:08;6.80;;;3.77;;
4744;SDS011;2386;42.138;24.746;2023-04-25T10:42:34;3.90;;;3.60;;
4744;SDS011;2386;42.138;24.746;2023-04-25T10:45:07;5.20;;;3.80;;
4744;SDS011;2386;42.138;24.746;2023-04-25T10:47:43;8.60;;;3.80;;
4744;SDS011;2386;42.138;24.746;2023-04-25T10:50:15;7.27;;;3.90;;
4744;SDS011;2386;42.138;24.746;2023-04-25T10:52:47;10.27;;;3.97;;
4744;SDS011;2386;42.138;24.746;2023-04-25T10:55:13;10.40;;;4.17;;
4744;SDS011;2386;42.138;24.746;2023-04-25T10:57:44;3.77;;;3.40;;
4744;SDS011;2386;42.138;24.746;2023-04-25T11:00:18;5.50;;;3.53;;
4744;SDS011;2386;42.138;24.746;2023-04-25T11:02:48;8.83;;;4.10;;
4744;SDS011;2386;42.138;24.746;2023-04-25T11:05:20;8.03;;;3.50;;
4744;SDS011;2386;42.138;24.746;2023-04-25T11:07:54;3.37;;;3.07;;
4744;SDS011;2386;42.138;24.746;2023-04-25T11:10:31;4.30;;;3.37;;
4744;SDS011;2386;42.138;24.746;2023-04-25T11:12:58;3.37;;;3.07;;
4744;SDS011;2386;42.138;24.746;2023-04-25T11:15:25;10.43;;;3.70;;
4744;SDS011;2386;42.138;24.746;2023-04-25T11:17:51;3.20;;;2.97;;
4744;SDS011;2386;42.138;24.746;2023-04-25T11:20:17;4.03;;;3.63;;
4744;SDS011;2386;42.138;24.746;2023-04-25T11:22:44;10.60;;;4.60;;
4744;SDS011;2386;42.138;24.746;2023-04-25T11:25:11;8.90;;;4.30;;
4744;SDS011;2386;42.138;24.746;2023-04-25T11:30:59;4.57;;;4.10;;
4744;SDS011;2386;42.138;24.746;2023-04-25T11:33:25;6.33;;;4.30;;
4744;SDS011;2386;42.138;24.746;2023-04-25T11:35:53;10.00;;;5.50;;
4744;SDS011;2386;42.138;24.746;2023-04-25T11:38:21;7.60;;;5.10;;
4744;SDS011;2386;42.138;24.746;2023-04-25T11:40:53;6.77;;;4.97;;
4744;SDS011;2386;42.138;24.746;2023-04-25T11:43:20;6.43;;;4.57;;
4744;SDS011;2386;42.138;24.746;2023-04-25T11:45:47;11.13;;;4.23;;
4744;SDS011;2386;42.138;24.746;2023-04-25T11:48:13;5.70;;;4.90;;
4744;SDS011;2386;42.138;24.746;2023-04-25T11:50:39;8.27;;;4.30;;
4744;SDS011;2386;42.138;24.746;2023-04-25T11:53:05;7.33;;;4.53;;
4744;SDS011;2386;42.138;24.746;2023-04-25T11:55:31;4.80;;;4.30;;
4744;SDS011;2386;42.138;24.746;2023-04-25T11:57:59;4.93;;;4.47;;
4744;SDS011;2386;42.138;24.746;2023-04-25T12:00:25;5.30;;;4.30;;
4744;SDS011;2386;42.138;24.746;2023-04-25T12:02:54;5.57;;;4.00;;
4744;SDS011;2386;42.138;24.746;2023-04-25T12:05:29;5.20;;;4.40;;
4744;SDS011;2386;42.138;24.746;2023-04-25T12:07:58;10.63;;;4.33;;
4744;SDS011;2386;42.138;24.746;2023-04-25T12:10:24;4.80;;;4.40;;
4744;SDS011;2386;42.138;24.746;2023-04-25T12:12:50;4.63;;;4.17;;
4744;SDS011;2386;42.138;24.746;2023-04-25T12:15:16;13.03;;;4.97;;
4744;SDS011;2386;42.138;24.746;2023-04-25T12:17:48;5.83;;;4.40;;
4744;SDS011;2386;42.138;24.746;2023-04-25T12:20:18;10.53;;;4.33;;
4744;SDS011;2386;42.138;24.746;2023-04-25T12:23:08;5.63;;;4.30;;
4744;SDS011;2386;42.138;24.746;2023-04-25T12:25:37;4.73;;;4.20;;
4744;SDS011;2386;42.138;24.746;2023-04-25T12:28:20;7.97;;;4.37;;
4744;SDS011;2386;42.138;24.746;2023-04-25T12:30:57;10.23;;;3.63;;
4744;SDS011;2386;42.138;24.746;2023-04-25T12:33:36;5.13;;;3.50;;
4744;SDS011;2386;42.138;24.746;2023-04-25T12:36:03;5.37;;;2.67;;
4744;SDS011;2386;42.138;24.746;2023-04-25T12:38:35;4.60;;;3.40;;
4744;SDS011;2386;42.138;24.746;2023-04-25T12:41:20;8.17;;;3.60;;
4744;SDS011;2386;42.138;24.746;2023-04-25T12:43:45;3.77;;;3.30;;
4744;SDS011;2386;42.138;24.746;2023-04-25T12:46:10;3.90;;;3.50;;
4744;SDS011;2386;42.138;24.746;2023-04-25T12:48:36;8.73;;;3.83;;
4744;SDS011;2386;42.138;24.746;2023-04-25T12:51:06;3.53;;;3.23;;
4744;SDS011;2386;42.138;24.746;2023-04-25T12:57:51;3.93;;;3.40;;
4744;SDS011;2386;42.138;24.746;2023-04-25T13:00:17;4.00;;;3.70;;
4744;SDS011;2386;42.138;24.746;2023-04-25T13:02:45;4.13;;;3.83;;
4744;SDS011;2386;42.138;24.746;2023-04-25T13:05:11;5.03;;;3.70;;
4744;SDS011;2386;42.138;24.746;2023-04-25T13:07:37;5.37;;;3.97;;
4744;SDS011;2386;42.138;24.746;2023-04-25T13:10:03;7.73;;;4.90;;
4744;SDS011;2386;42.138;24.746;2023-04-25T13:12:29;4.23;;;3.83;;
4744;SDS011;2386;42.138;24.746;2023-04-25T13:14:55;3.80;;;3.50;;
4744;SDS011;2386;42.138;24.746;2023-04-25T13:20:42;3.60;;;3.00;;
4744;SDS011;2386;42.138;24.746;2023-04-25T13:23:08;4.47;;;3.10;;
4744;SDS011;2386;42.138;24.746;2023-04-25T13:25:34;10.67;;;3.40;;
4744;SDS011;2386;42.138;24.746;2023-04-25T13:28:01;6.43;;;3.77;;
4744;SDS011;2386;42.138;24.746;2023-04-25T13:30:27;4.67;;;3.23;;
4744;SDS011;2386;42.138;24.746;2023-04-25T13:32:53;4.37;;;2.97;;
4744;SDS011;2386;42.138;24.746;2023-04-25T13:35:21;5.00;;;2.93;;
4744;SDS011;2386;42.138;24.746;2023-04-25T13:37:46;3.93;;;3.30;;
4744;SDS011;2386;42.138;24.746;2023-04-25T13:40:13;3.30;;;3.00;;
4744;SDS011;2386;42.138;24.746;2023-04-25T13:42:38;3.20;;;2.83;;
4744;SDS011;2386;42.138;24.746;2023-04-25T13:45:05;5.40;;;3.37;;
4744;SDS011;2386;42.138;24.746;2023-04-25T13:47:31;6.27;;;3.70;;
4744;SDS011;2386;42.138;24.746;2023-04-25T13:49:57;3.03;;;2.73;;
4744;SDS011;2386;42.138;24.746;2023-04-25T13:52:22;4.80;;;2.73;;
4744;SDS011;2386;42.138;24.746;2023-04-25T13:54:52;3.00;;;2.73;;
4744;SDS011;2386;42.138;24.746;2023-04-25T13:57:24;3.73;;;2.90;;
4744;SDS011;2386;42.138;24.746;2023-04-25T13:59:50;5.13;;;3.10;;
4744;SDS011;2386;42.138;24.746;2023-04-25T14:02:16;5.57;;;3.43;;
4744;SDS011;2386;42.138;24.746;2023-04-25T14:04:42;7.47;;;2.50;;
4744;SDS011;2386;42.138;24.746;2023-04-25T14:07:07;3.90;;;3.00;;
4744;SDS011;2386;42.138;24.746;2023-04-25T14:09:33;4.47;;;3.20;;
4744;SDS011;2386;42.138;24.746;2023-04-25T14:11:59;4.63;;;3.10;;
4744;SDS011;2386;42.138;24.746;2023-04-25T14:14:25;3.10;;;2.20;;
4744;SDS011;2386;42.138;24.746;2023-04-25T14:16:51;2.27;;;2.07;;
4744;SDS011;2386;42.138;24.746;2023-04-25T14:19:18;3.33;;;2.67;;
4744;SDS011;2386;42.138;24.746;2023-04-25T14:21:44;2.53;;;2.33;;
4744;SDS011;2386;42.138;24.746;2023-04-25T14:24:09;10.43;;;2.70;;
4744;SDS011;2386;42.138;24.746;2023-04-25T14:26:38;4.33;;;2.80;;
4744;SDS011;2386;42.138;24.746;2023-04-25T14:29:04;4.27;;;2.00;;
4744;SDS011;2386;42.138;24.746;2023-04-25T14:31:33;2.50;;;2.23;;
4744;SDS011;2386;42.138;24.746;2023-04-25T14:33:59;5.13;;;2.57;;
4744;SDS011;2386;42.138;24.746;2023-04-25T14:36:25;3.53;;;2.27;;
4744;SDS011;2386;42.138;24.746;2023-04-25T14:38:51;5.50;;;2.23;;
4744;SDS011;2386;42.138;24.746;2023-04-25T14:41:17;5.10;;;2.47;;
4744;SDS011;2386;42.138;24.746;2023-04-25T14:43:42;6.33;;;3.17;;
4744;SDS011;2386;42.138;24.746;2023-04-25T14:46:08;4.57;;;3.00;;
4744;SDS011;2386;42.138;24.746;2023-04-25T14:48:34;7.77;;;3.33;;
4744;SDS011;2386;42.138;24.746;2023-04-25T14:51:00;2.63;;;2.43;;
4744;SDS011;2386;42.138;24.746;2023-04-25T14:53:26;3.80;;;3.10;;
4744;SDS011;2386;42.138;24.746;2023-04-25T14:55:52;4.27;;;2.67;;
4744;SDS011;2386;42.138;24.746;2023-04-25T14:58:18;2.73;;;2.53;;
4744;SDS011;2386;42.138;24.746;2023-04-25T15:00:47;3.73;;;2.50;;
4744;SDS011;2386;42.138;24.746;2023-04-25T15:03:13;6.40;;;2.60;;
4744;SDS011;2386;42.138;24.746;2023-04-25T15:05:39;9.20;;;2.10;;
4744;SDS011;2386;42.138;24.746;2023-04-25T15:08:05;7.80;;;3.10;;
4744;SDS011;2386;42.138;24.746;2023-04-25T15:10:31;4.40;;;2.57;;
4744;SDS011;2386;42.138;24.746;2023-04-25T15:12:56;2.93;;;2.20;;
4744;SDS011;2386;42.138;24.746;2023-04-25T15:15:22;5.27;;;2.00;;
4744;SDS011;2386;42.138;24.746;2023-04-25T15:17:48;2.33;;;2.13;;
4744;SDS011;2386;42.138;24.746;2023-04-25T15:20:14;2.17;;;1.87;;
4744;SDS011;2386;42.138;24.746;2023-04-25T15:22:40;2.47;;;2.10;;
4744;SDS011;2386;42.138;24.746;2023-04-25T15:25:07;2.17;;;1.97;;
4744;SDS011;2386;42.138;24.746;2023-04-25T15:27:37;2.30;;;2.10;;
4744;SDS011;2386;42.138;24.746;2023-04-25T15:30:07;6.23;;;2.53;;
4744;SDS011;2386;42.138;24.746;2023-04-25T15:32:34;2.03;;;1.93;;
4744;SDS011;2386;42.138;24.746;2023-04-25T15:35:03;3.70;;;2.40;;
4744;SDS011;2386;42.138;24.746;2023-04-25T15:37:30;2.83;;;2.30;;
4744;SDS011;2386;42.138;24.746;2023-04-25T15:40:04;1.73;;;1.63;;
4744;SDS011;2386;42.138;24.746;2023-04-25T15:42:37;1.80;;;1.70;;
4744;SDS011;2386;42.138;24.746;2023-04-25T15:45:07;3.13;;;1.80;;
4744;SDS011;2386;42.138;24.746;2023-04-25T15:47:34;2.03;;;1.90;;